sensor_id;sensor_type;location;lat;lon;timestamp;temperature;humidity
9598;DHT22;4837;50.890;4.724;2024-02-16T00:01:20;14.00;50.20
9598;DHT22;4837;50.890;4.724;2024-02-16T00:03:46;14.00;50.90
9598;DHT22;4837;50.890;4.724;2024-02-16T00:06:12;14.00;55.20
9598;DHT22;4837;50.890;4.724;2024-02-16T00:08:37;14.00;57.20
9598;DHT22;4837;50.890;4.724;2024-02-16T00:11:05;14.00;58.30
9598;DHT22;4837;50.890;4.724;2024-02-16T00:13:31;13.90;63.70
9598;DHT22;4837;50.890;4.724;2024-02-16T00:15:57;13.80;68.70
9598;DHT22;4837;50.890;4.724;2024-02-16T00:18:23;13.80;69.70
9598;DHT22;4837;50.890;4.724;2024-02-16T00:20:49;13.80;67.70
9598;DHT22;4837;50.890;4.724;2024-02-16T00:23:15;13.80;80.30
9598;DHT22;4837;50.890;4.724;2024-02-16T00:25:41;13.70;83.90
9598;DHT22;4837;50.890;4.724;2024-02-16T00:28:07;13.70;78.10
9598;DHT22;4837;50.890;4.724;2024-02-16T00:30:33;13.70;79.40
9598;DHT22;4837;50.890;4.724;2024-02-16T00:32:58;13.70;74.50
9598;DHT22;4837;50.890;4.724;2024-02-16T00:35:26;13.70;85.10
9598;DHT22;4837;50.890;4.724;2024-02-16T00:37:52;13.70;89.20
9598;DHT22;4837;50.890;4.724;2024-02-16T00:40:17;13.70;87.50
9598;DHT22;4837;50.890;4.724;2024-02-16T00:42:43;13.70;88.70
9598;DHT22;4837;50.890;4.724;2024-02-16T00:45:09;13.70;85.90
9598;DHT22;4837;50.890;4.724;2024-02-16T00:47:35;13.70;90.80
9598;DHT22;4837;50.890;4.724;2024-02-16T00:50:01;13.60;90.40
9598;DHT22;4837;50.890;4.724;2024-02-16T00:52:27;13.60;94.70
9598;DHT22;4837;50.890;4.724;2024-02-16T00:54:52;13.60;95.60
9598;DHT22;4837;50.890;4.724;2024-02-16T00:57:18;13.60;96.60
9598;DHT22;4837;50.890;4.724;2024-02-16T00:59:44;13.60;98.20
9598;DHT22;4837;50.890;4.724;2024-02-16T01:02:09;13.50;99.90
9598;DHT22;4837;50.890;4.724;2024-02-16T01:04:37;13.50;99.90
9598;DHT22;4837;50.890;4.724;2024-02-16T01:07:02;13.50;99.90
9598;DHT22;4837;50.890;4.724;2024-02-16T01:09:28;13.50;99.90
9598;DHT22;4837;50.890;4.724;2024-02-16T01:11:54;13.50;99.90
9598;DHT22;4837;50.890;4.724;2024-02-16T01:14:20;13.50;99.90
9598;DHT22;4837;50.890;4.724;2024-02-16T01:16:46;13.50;99.90
9598;DHT22;4837;50.890;4.724;2024-02-16T01:19:12;13.50;99.90
9598;DHT22;4837;50.890;4.724;2024-02-16T01:21:38;13.50;99.90
9598;DHT22;4837;50.890;4.724;2024-02-16T01:24:16;13.50;99.90
9598;DHT22;4837;50.890;4.724;2024-02-16T01:26:42;13.50;99.90
9598;DHT22;4837;50.890;4.724;2024-02-16T01:29:08;13.40;99.90
9598;DHT22;4837;50.890;4.724;2024-02-16T01:31:33;13.40;99.90
9598;DHT22;4837;50.890;4.724;2024-02-16T01:34:01;13.40;99.90
9598;DHT22;4837;50.890;4.724;2024-02-16T01:36:27;13.40;99.90
9598;DHT22;4837;50.890;4.724;2024-02-16T01:38:53;13.30;99.90
9598;DHT22;4837;50.890;4.724;2024-02-16T01:41:18;13.40;99.90
9598;DHT22;4837;50.890;4.724;2024-02-16T01:43:44;13.30;99.90
9598;DHT22;4837;50.890;4.724;2024-02-16T01:46:10;13.30;99.90
9598;DHT22;4837;50.890;4.724;2024-02-16T01:48:36;13.30;99.90
9598;DHT22;4837;50.890;4.724;2024-02-16T01:51:05;13.30;99.90
9598;DHT22;4837;50.890;4.724;2024-02-16T01:53:32;13.30;99.90
9598;DHT22;4837;50.890;4.724;2024-02-16T01:55:58;13.20;99.90
9598;DHT22;4837;50.890;4.724;2024-02-16T01:58:23;13.20;99.90
9598;DHT22;4837;50.890;4.724;2024-02-16T02:00:49;13.20;99.90
9598;DHT22;4837;50.890;4.724;2024-02-16T02:03:15;13.20;99.90
9598;DHT22;4837;50.890;4.724;2024-02-16T02:05:46;13.30;99.90
9598;DHT22;4837;50.890;4.724;2024-02-16T02:08:13;13.20;99.90
9598;DHT22;4837;50.890;4.724;2024-02-16T02:10:39;13.30;99.90
9598;DHT22;4837;50.890;4.724;2024-02-16T02:13:05;13.30;99.90
9598;DHT22;4837;50.890;4.724;2024-02-16T02:15:30;13.30;99.90
9598;DHT22;4837;50.890;4.724;2024-02-16T02:17:56;13.30;99.90
9598;DHT22;4837;50.890;4.724;2024-02-16T02:20:25;13.30;99.90
9598;DHT22;4837;50.890;4.724;2024-02-16T02:22:50;13.30;99.90
9598;DHT22;4837;50.890;4.724;2024-02-16T02:25:16;13.30;99.90
9598;DHT22;4837;50.890;4.724;2024-02-16T02:27:42;13.40;99.90
9598;DHT22;4837;50.890;4.724;2024-02-16T02:30:08;13.40;99.90
9598;DHT22;4837;50.890;4.724;2024-02-16T02:32:34;13.40;99.90
9598;DHT22;4837;50.890;4.724;2024-02-16T02:35:01;13.30;99.90
9598;DHT22;4837;50.890;4.724;2024-02-16T02:37:26;13.30;99.90
9598;DHT22;4837;50.890;4.724;2024-02-16T02:39:52;13.30;99.90
9598;DHT22;4837;50.890;4.724;2024-02-16T02:42:18;13.30;99.90
9598;DHT22;4837;50.890;4.724;2024-02-16T02:44:44;13.30;99.90
9598;DHT22;4837;50.890;4.724;2024-02-16T02:47:15;13.30;99.90
9598;DHT22;4837;50.890;4.724;2024-02-16T02:49:42;13.40;99.90
9598;DHT22;4837;50.890;4.724;2024-02-16T02:52:09;13.40;99.90
9598;DHT22;4837;50.890;4.724;2024-02-16T02:54:35;13.40;99.90
9598;DHT22;4837;50.890;4.724;2024-02-16T02:57:02;13.40;99.90
9598;DHT22;4837;50.890;4.724;2024-02-16T02:59:28;13.40;99.90
9598;DHT22;4837;50.890;4.724;2024-02-16T03:01:54;13.50;99.90
9598;DHT22;4837;50.890;4.724;2024-02-16T03:04:19;13.50;99.90
9598;DHT22;4837;50.890;4.724;2024-02-16T03:06:46;13.50;99.90
9598;DHT22;4837;50.890;4.724;2024-02-16T03:09:12;13.50;99.90
9598;DHT22;4837;50.890;4.724;2024-02-16T03:11:38;13.50;99.90
9598;DHT22;4837;50.890;4.724;2024-02-16T03:14:05;13.40;99.90
9598;DHT22;4837;50.890;4.724;2024-02-16T03:16:31;13.40;99.90
9598;DHT22;4837;50.890;4.724;2024-02-16T03:18:57;13.50;99.90
9598;DHT22;4837;50.890;4.724;2024-02-16T03:21:23;13.50;99.90
9598;DHT22;4837;50.890;4.724;2024-02-16T03:23:49;13.40;99.90
9598;DHT22;4837;50.890;4.724;2024-02-16T03:26:19;13.50;99.90
9598;DHT22;4837;50.890;4.724;2024-02-16T03:28:46;13.50;99.90
9598;DHT22;4837;50.890;4.724;2024-02-16T03:31:21;13.50;99.90
9598;DHT22;4837;50.890;4.724;2024-02-16T03:33:48;13.50;99.90
9598;DHT22;4837;50.890;4.724;2024-02-16T03:36:15;13.50;99.90
9598;DHT22;4837;50.890;4.724;2024-02-16T03:38:42;13.60;99.90
9598;DHT22;4837;50.890;4.724;2024-02-16T03:41:13;13.60;99.90
9598;DHT22;4837;50.890;4.724;2024-02-16T03:43:40;13.70;99.90
9598;DHT22;4837;50.890;4.724;2024-02-16T03:46:06;13.60;99.90
9598;DHT22;4837;50.890;4.724;2024-02-16T03:48:31;13.60;99.90
9598;DHT22;4837;50.890;4.724;2024-02-16T03:50:57;13.60;99.90
9598;DHT22;4837;50.890;4.724;2024-02-16T03:53:23;13.60;99.90
9598;DHT22;4837;50.890;4.724;2024-02-16T03:55:49;13.60;99.90
9598;DHT22;4837;50.890;4.724;2024-02-16T03:58:16;13.70;99.90
9598;DHT22;4837;50.890;4.724;2024-02-16T04:00:42;13.70;99.90
9598;DHT22;4837;50.890;4.724;2024-02-16T04:03:08;13.80;99.90
9598;DHT22;4837;50.890;4.724;2024-02-16T04:05:35;13.90;99.90
9598;DHT22;4837;50.890;4.724;2024-02-16T04:08:01;13.90;99.90
9598;DHT22;4837;50.890;4.724;2024-02-16T04:10:29;14.00;99.90
9598;DHT22;4837;50.890;4.724;2024-02-16T04:12:55;14.00;99.90
9598;DHT22;4837;50.890;4.724;2024-02-16T04:15:20;14.00;99.90
9598;DHT22;4837;50.890;4.724;2024-02-16T04:17:46;14.10;99.90
9598;DHT22;4837;50.890;4.724;2024-02-16T04:20:12;14.10;99.90
9598;DHT22;4837;50.890;4.724;2024-02-16T04:22:39;14.20;99.90
9598;DHT22;4837;50.890;4.724;2024-02-16T04:25:05;14.20;99.90
9598;DHT22;4837;50.890;4.724;2024-02-16T04:27:31;14.20;99.90
9598;DHT22;4837;50.890;4.724;2024-02-16T04:29:57;14.20;99.90
9598;DHT22;4837;50.890;4.724;2024-02-16T04:32:23;14.20;99.90
9598;DHT22;4837;50.890;4.724;2024-02-16T04:34:51;14.20;99.90
9598;DHT22;4837;50.890;4.724;2024-02-16T04:37:22;14.20;99.90
9598;DHT22;4837;50.890;4.724;2024-02-16T04:39:47;14.20;99.90
9598;DHT22;4837;50.890;4.724;2024-02-16T04:42:13;14.30;99.90
9598;DHT22;4837;50.890;4.724;2024-02-16T04:44:39;14.30;99.90
9598;DHT22;4837;50.890;4.724;2024-02-16T04:47:05;14.30;99.90
9598;DHT22;4837;50.890;4.724;2024-02-16T04:49:31;14.30;99.90
9598;DHT22;4837;50.890;4.724;2024-02-16T04:51:56;14.30;99.90
9598;DHT22;4837;50.890;4.724;2024-02-16T04:54:22;14.30;99.90
9598;DHT22;4837;50.890;4.724;2024-02-16T04:56:49;14.30;99.90
9598;DHT22;4837;50.890;4.724;2024-02-16T04:59:18;14.30;99.90
9598;DHT22;4837;50.890;4.724;2024-02-16T05:01:44;14.30;99.90
9598;DHT22;4837;50.890;4.724;2024-02-16T05:04:10;14.30;99.90
9598;DHT22;4837;50.890;4.724;2024-02-16T05:06:42;14.30;99.90
9598;DHT22;4837;50.890;4.724;2024-02-16T05:09:08;14.40;99.90
9598;DHT22;4837;50.890;4.724;2024-02-16T05:11:33;14.30;99.90
9598;DHT22;4837;50.890;4.724;2024-02-16T05:13:59;14.30;99.90
9598;DHT22;4837;50.890;4.724;2024-02-16T05:16:26;14.30;99.90
9598;DHT22;4837;50.890;4.724;2024-02-16T05:18:52;14.30;99.90
9598;DHT22;4837;50.890;4.724;2024-02-16T05:21:18;14.30;99.90
9598;DHT22;4837;50.890;4.724;2024-02-16T05:23:44;14.30;99.90
9598;DHT22;4837;50.890;4.724;2024-02-16T05:26:09;14.30;99.90
9598;DHT22;4837;50.890;4.724;2024-02-16T05:28:35;14.30;99.90
9598;DHT22;4837;50.890;4.724;2024-02-16T05:31:16;14.30;99.90
9598;DHT22;4837;50.890;4.724;2024-02-16T05:33:44;14.20;99.90
9598;DHT22;4837;50.890;4.724;2024-02-16T05:36:10;14.30;99.90
9598;DHT22;4837;50.890;4.724;2024-02-16T05:38:37;14.20;99.90
9598;DHT22;4837;50.890;4.724;2024-02-16T05:41:09;14.20;99.90
9598;DHT22;4837;50.890;4.724;2024-02-16T05:43:37;14.30;99.90
9598;DHT22;4837;50.890;4.724;2024-02-16T05:46:04;14.30;99.90
9598;DHT22;4837;50.890;4.724;2024-02-16T05:48:33;14.20;99.90
9598;DHT22;4837;50.890;4.724;2024-02-16T05:51:03;14.20;99.90
9598;DHT22;4837;50.890;4.724;2024-02-16T05:53:31;14.30;99.90
9598;DHT22;4837;50.890;4.724;2024-02-16T05:55:56;14.30;99.90
9598;DHT22;4837;50.890;4.724;2024-02-16T05:58:24;14.20;99.90
9598;DHT22;4837;50.890;4.724;2024-02-16T06:00:49;14.30;99.90
9598;DHT22;4837;50.890;4.724;2024-02-16T06:03:15;14.20;99.90
9598;DHT22;4837;50.890;4.724;2024-02-16T06:05:41;14.20;99.90
9598;DHT22;4837;50.890;4.724;2024-02-16T06:08:10;14.20;99.90
9598;DHT22;4837;50.890;4.724;2024-02-16T06:10:36;14.30;99.90
9598;DHT22;4837;50.890;4.724;2024-02-16T06:13:02;14.20;99.90
9598;DHT22;4837;50.890;4.724;2024-02-16T06:15:28;14.20;99.90
9598;DHT22;4837;50.890;4.724;2024-02-16T06:17:53;14.20;99.90
9598;DHT22;4837;50.890;4.724;2024-02-16T06:20:19;14.20;99.90
9598;DHT22;4837;50.890;4.724;2024-02-16T06:22:45;14.30;99.90
9598;DHT22;4837;50.890;4.724;2024-02-16T06:25:11;14.30;99.90
9598;DHT22;4837;50.890;4.724;2024-02-16T06:27:37;14.30;99.90
9598;DHT22;4837;50.890;4.724;2024-02-16T06:30:03;14.30;99.90
9598;DHT22;4837;50.890;4.724;2024-02-16T06:32:30;14.30;99.90
9598;DHT22;4837;50.890;4.724;2024-02-16T06:34:57;14.20;99.90
9598;DHT22;4837;50.890;4.724;2024-02-16T06:37:22;14.20;99.90
9598;DHT22;4837;50.890;4.724;2024-02-16T06:39:48;14.20;99.90
9598;DHT22;4837;50.890;4.724;2024-02-16T06:42:14;14.20;99.90
9598;DHT22;4837;50.890;4.724;2024-02-16T06:44:40;14.20;99.90
9598;DHT22;4837;50.890;4.724;2024-02-16T06:47:06;14.20;99.90
9598;DHT22;4837;50.890;4.724;2024-02-16T06:49:32;14.20;99.90
9598;DHT22;4837;50.890;4.724;2024-02-16T06:51:57;14.20;99.90
9598;DHT22;4837;50.890;4.724;2024-02-16T06:54:23;14.20;99.90
9598;DHT22;4837;50.890;4.724;2024-02-16T06:56:51;14.20;99.90
9598;DHT22;4837;50.890;4.724;2024-02-16T06:59:20;14.20;99.90
9598;DHT22;4837;50.890;4.724;2024-02-16T07:01:46;14.20;99.90
9598;DHT22;4837;50.890;4.724;2024-02-16T07:04:12;14.20;99.90
9598;DHT22;4837;50.890;4.724;2024-02-16T07:06:37;14.20;99.90
9598;DHT22;4837;50.890;4.724;2024-02-16T07:09:03;14.20;99.90
9598;DHT22;4837;50.890;4.724;2024-02-16T07:11:29;14.20;99.90
9598;DHT22;4837;50.890;4.724;2024-02-16T07:13:56;14.20;99.90
9598;DHT22;4837;50.890;4.724;2024-02-16T07:16:22;14.20;99.90
9598;DHT22;4837;50.890;4.724;2024-02-16T07:18:47;14.20;99.90
9598;DHT22;4837;50.890;4.724;2024-02-16T07:21:13;14.20;99.90
9598;DHT22;4837;50.890;4.724;2024-02-16T07:23:39;14.20;99.90
9598;DHT22;4837;50.890;4.724;2024-02-16T07:26:05;14.20;99.90
9598;DHT22;4837;50.890;4.724;2024-02-16T07:28:30;14.20;99.90
9598;DHT22;4837;50.890;4.724;2024-02-16T07:30:57;14.20;99.90
9598;DHT22;4837;50.890;4.724;2024-02-16T07:33:23;14.30;99.90
9598;DHT22;4837;50.890;4.724;2024-02-16T07:35:50;14.30;99.90
9598;DHT22;4837;50.890;4.724;2024-02-16T07:38:17;14.30;99.90
9598;DHT22;4837;50.890;4.724;2024-02-16T07:40:43;14.30;99.90
9598;DHT22;4837;50.890;4.724;2024-02-16T07:43:11;14.30;99.90
9598;DHT22;4837;50.890;4.724;2024-02-16T07:45:37;14.30;99.90
9598;DHT22;4837;50.890;4.724;2024-02-16T07:48:02;14.30;99.90
9598;DHT22;4837;50.890;4.724;2024-02-16T07:50:30;14.30;99.90
9598;DHT22;4837;50.890;4.724;2024-02-16T07:52:56;14.30;99.90
9598;DHT22;4837;50.890;4.724;2024-02-16T07:55:22;14.40;99.90
9598;DHT22;4837;50.890;4.724;2024-02-16T07:57:50;14.40;99.90
9598;DHT22;4837;50.890;4.724;2024-02-16T08:00:16;14.40;99.90
9598;DHT22;4837;50.890;4.724;2024-02-16T08:02:42;14.40;99.90
9598;DHT22;4837;50.890;4.724;2024-02-16T08:05:11;14.40;99.90
9598;DHT22;4837;50.890;4.724;2024-02-16T08:07:42;14.40;99.90
9598;DHT22;4837;50.890;4.724;2024-02-16T08:10:10;14.40;99.90
9598;DHT22;4837;50.890;4.724;2024-02-16T08:12:36;14.40;99.90
9598;DHT22;4837;50.890;4.724;2024-02-16T08:15:06;14.40;99.90
9598;DHT22;4837;50.890;4.724;2024-02-16T08:17:36;14.40;99.90
9598;DHT22;4837;50.890;4.724;2024-02-16T08:20:02;14.30;99.90
9598;DHT22;4837;50.890;4.724;2024-02-16T08:22:28;14.30;99.90
9598;DHT22;4837;50.890;4.724;2024-02-16T08:24:54;14.20;99.90
9598;DHT22;4837;50.890;4.724;2024-02-16T08:27:20;14.20;99.90
9598;DHT22;4837;50.890;4.724;2024-02-16T08:29:46;14.10;99.90
9598;DHT22;4837;50.890;4.724;2024-02-16T08:32:11;14.00;99.90
9598;DHT22;4837;50.890;4.724;2024-02-16T08:34:37;13.90;99.90
9598;DHT22;4837;50.890;4.724;2024-02-16T08:37:04;13.80;99.90
9598;DHT22;4837;50.890;4.724;2024-02-16T08:39:30;13.70;99.90
9598;DHT22;4837;50.890;4.724;2024-02-16T08:41:57;13.70;99.90
9598;DHT22;4837;50.890;4.724;2024-02-16T08:44:24;13.70;99.90
9598;DHT22;4837;50.890;4.724;2024-02-16T08:46:50;13.70;99.90
9598;DHT22;4837;50.890;4.724;2024-02-16T08:49:16;13.70;99.90
9598;DHT22;4837;50.890;4.724;2024-02-16T08:51:43;13.70;99.90
9598;DHT22;4837;50.890;4.724;2024-02-16T08:54:09;13.70;99.90
9598;DHT22;4837;50.890;4.724;2024-02-16T08:56:35;13.70;99.90
9598;DHT22;4837;50.890;4.724;2024-02-16T08:59:02;13.80;99.90
9598;DHT22;4837;50.890;4.724;2024-02-16T09:01:35;13.90;99.90
9598;DHT22;4837;50.890;4.724;2024-02-16T09:04:01;13.80;99.90
9598;DHT22;4837;50.890;4.724;2024-02-16T09:06:27;13.90;99.90
9598;DHT22;4837;50.890;4.724;2024-02-16T09:08:53;14.00;99.90
9598;DHT22;4837;50.890;4.724;2024-02-16T09:11:20;14.00;99.90
9598;DHT22;4837;50.890;4.724;2024-02-16T09:13:46;14.00;99.90
9598;DHT22;4837;50.890;4.724;2024-02-16T09:16:12;14.00;99.90
9598;DHT22;4837;50.890;4.724;2024-02-16T09:18:38;14.00;99.90
9598;DHT22;4837;50.890;4.724;2024-02-16T09:21:05;14.00;99.90
9598;DHT22;4837;50.890;4.724;2024-02-16T09:23:35;14.10;99.90
9598;DHT22;4837;50.890;4.724;2024-02-16T09:26:01;14.10;99.90
9598;DHT22;4837;50.890;4.724;2024-02-16T09:28:28;14.10;99.90
9598;DHT22;4837;50.890;4.724;2024-02-16T09:30:54;14.10;99.90
9598;DHT22;4837;50.890;4.724;2024-02-16T09:33:21;14.20;99.90
9598;DHT22;4837;50.890;4.724;2024-02-16T09:35:48;14.30;99.90
9598;DHT22;4837;50.890;4.724;2024-02-16T09:38:14;14.20;99.90
9598;DHT22;4837;50.890;4.724;2024-02-16T09:40:39;14.30;99.90
9598;DHT22;4837;50.890;4.724;2024-02-16T09:43:05;14.30;99.90
9598;DHT22;4837;50.890;4.724;2024-02-16T09:45:32;14.20;99.90
9598;DHT22;4837;50.890;4.724;2024-02-16T09:47:59;14.20;99.90
9598;DHT22;4837;50.890;4.724;2024-02-16T09:50:25;14.20;99.90
9598;DHT22;4837;50.890;4.724;2024-02-16T09:52:52;14.20;99.90
9598;DHT22;4837;50.890;4.724;2024-02-16T09:55:19;14.20;99.90
9598;DHT22;4837;50.890;4.724;2024-02-16T09:57:46;14.30;99.90
9598;DHT22;4837;50.890;4.724;2024-02-16T10:00:13;14.20;99.90
9598;DHT22;4837;50.890;4.724;2024-02-16T10:02:46;14.20;99.90
9598;DHT22;4837;50.890;4.724;2024-02-16T10:05:15;14.20;99.90
9598;DHT22;4837;50.890;4.724;2024-02-16T10:07:42;14.20;99.90
9598;DHT22;4837;50.890;4.724;2024-02-16T10:10:25;14.30;99.90
9598;DHT22;4837;50.890;4.724;2024-02-16T10:13:20;14.20;99.90
9598;DHT22;4837;50.890;4.724;2024-02-16T10:15:46;14.30;99.90
9598;DHT22;4837;50.890;4.724;2024-02-16T10:18:13;14.20;99.90
9598;DHT22;4837;50.890;4.724;2024-02-16T10:20:39;14.30;99.90
9598;DHT22;4837;50.890;4.724;2024-02-16T10:23:09;14.30;99.90
9598;DHT22;4837;50.890;4.724;2024-02-16T10:25:37;14.20;99.90
9598;DHT22;4837;50.890;4.724;2024-02-16T10:28:08;14.20;99.90
9598;DHT22;4837;50.890;4.724;2024-02-16T10:30:40;14.20;99.90
9598;DHT22;4837;50.890;4.724;2024-02-16T10:33:06;14.30;99.90
9598;DHT22;4837;50.890;4.724;2024-02-16T10:35:36;14.30;99.90
9598;DHT22;4837;50.890;4.724;2024-02-16T10:38:03;14.30;99.90
9598;DHT22;4837;50.890;4.724;2024-02-16T10:40:39;14.30;99.90
9598;DHT22;4837;50.890;4.724;2024-02-16T10:43:06;14.40;99.90
9598;DHT22;4837;50.890;4.724;2024-02-16T10:45:39;14.40;99.90
9598;DHT22;4837;50.890;4.724;2024-02-16T10:48:06;14.50;99.90
9598;DHT22;4837;50.890;4.724;2024-02-16T10:50:34;14.50;99.90
9598;DHT22;4837;50.890;4.724;2024-02-16T10:53:16;14.50;99.90
9598;DHT22;4837;50.890;4.724;2024-02-16T10:55:44;14.50;99.90
9598;DHT22;4837;50.890;4.724;2024-02-16T10:58:13;14.50;99.90
9598;DHT22;4837;50.890;4.724;2024-02-16T11:01:08;14.50;99.90
9598;DHT22;4837;50.890;4.724;2024-02-16T11:03:38;14.50;99.90
9598;DHT22;4837;50.890;4.724;2024-02-16T11:06:17;14.40;99.90
9598;DHT22;4837;50.890;4.724;2024-02-16T11:08:43;14.50;99.90
9598;DHT22;4837;50.890;4.724;2024-02-16T11:11:09;14.50;99.90
9598;DHT22;4837;50.890;4.724;2024-02-16T11:13:39;14.40;99.90
9598;DHT22;4837;50.890;4.724;2024-02-16T11:16:08;14.40;99.90
9598;DHT22;4837;50.890;4.724;2024-02-16T11:18:39;14.40;99.90
9598;DHT22;4837;50.890;4.724;2024-02-16T11:21:05;14.40;99.90
9598;DHT22;4837;50.890;4.724;2024-02-16T11:23:35;14.50;99.90
9598;DHT22;4837;50.890;4.724;2024-02-16T11:26:08;14.50;99.90
9598;DHT22;4837;50.890;4.724;2024-02-16T11:28:36;14.50;99.90
9598;DHT22;4837;50.890;4.724;2024-02-16T11:31:03;14.50;99.90
9598;DHT22;4837;50.890;4.724;2024-02-16T11:33:29;14.50;99.90
9598;DHT22;4837;50.890;4.724;2024-02-16T11:35:56;14.50;99.90
9598;DHT22;4837;50.890;4.724;2024-02-16T11:38:23;14.40;99.90
9598;DHT22;4837;50.890;4.724;2024-02-16T11:41:06;14.40;99.90
9598;DHT22;4837;50.890;4.724;2024-02-16T11:43:33;14.40;99.90
9598;DHT22;4837;50.890;4.724;2024-02-16T11:45:59;14.30;99.90
9598;DHT22;4837;50.890;4.724;2024-02-16T11:48:26;14.30;99.90
9598;DHT22;4837;50.890;4.724;2024-02-16T11:51:00;14.30;99.90
9598;DHT22;4837;50.890;4.724;2024-02-16T11:53:30;14.20;99.90
9598;DHT22;4837;50.890;4.724;2024-02-16T11:55:57;14.20;99.90
9598;DHT22;4837;50.890;4.724;2024-02-16T11:58:23;14.10;99.90
9598;DHT22;4837;50.890;4.724;2024-02-16T12:00:50;14.10;99.90
9598;DHT22;4837;50.890;4.724;2024-02-16T12:03:24;14.10;99.90
9598;DHT22;4837;50.890;4.724;2024-02-16T12:05:54;14.00;99.90
9598;DHT22;4837;50.890;4.724;2024-02-16T12:08:20;14.00;99.90
9598;DHT22;4837;50.890;4.724;2024-02-16T12:10:51;14.10;99.90
9598;DHT22;4837;50.890;4.724;2024-02-16T12:13:18;14.00;99.90
9598;DHT22;4837;50.890;4.724;2024-02-16T12:15:48;14.00;99.90
9598;DHT22;4837;50.890;4.724;2024-02-16T12:18:27;14.00;99.90
9598;DHT22;4837;50.890;4.724;2024-02-16T12:23:23;14.00;99.90
9598;DHT22;4837;50.890;4.724;2024-02-16T12:25:48;14.00;99.90
9598;DHT22;4837;50.890;4.724;2024-02-16T12:28:14;13.90;99.90
9598;DHT22;4837;50.890;4.724;2024-02-16T12:30:40;14.00;99.90
9598;DHT22;4837;50.890;4.724;2024-02-16T12:33:05;13.90;99.90
9598;DHT22;4837;50.890;4.724;2024-02-16T12:35:32;13.90;99.90
9598;DHT22;4837;50.890;4.724;2024-02-16T12:37:57;13.90;99.90
9598;DHT22;4837;50.890;4.724;2024-02-16T12:40:23;13.80;99.90
9598;DHT22;4837;50.890;4.724;2024-02-16T12:42:49;13.80;99.90
9598;DHT22;4837;50.890;4.724;2024-02-16T12:45:15;13.70;99.90
9598;DHT22;4837;50.890;4.724;2024-02-16T12:47:41;13.70;99.90
9598;DHT22;4837;50.890;4.724;2024-02-16T12:50:07;13.70;99.90
9598;DHT22;4837;50.890;4.724;2024-02-16T12:52:33;13.70;99.90
9598;DHT22;4837;50.890;4.724;2024-02-16T12:55:01;13.70;99.90
9598;DHT22;4837;50.890;4.724;2024-02-16T12:57:27;13.70;99.90
9598;DHT22;4837;50.890;4.724;2024-02-16T12:59:54;13.70;99.90
9598;DHT22;4837;50.890;4.724;2024-02-16T13:02:20;13.60;99.90
9598;DHT22;4837;50.890;4.724;2024-02-16T13:04:46;13.60;99.90
9598;DHT22;4837;50.890;4.724;2024-02-16T13:07:11;13.50;99.90
9598;DHT22;4837;50.890;4.724;2024-02-16T13:09:37;13.50;99.90
9598;DHT22;4837;50.890;4.724;2024-02-16T13:12:03;13.50;99.90
9598;DHT22;4837;50.890;4.724;2024-02-16T13:14:29;13.50;99.90
9598;DHT22;4837;50.890;4.724;2024-02-16T13:16:54;13.50;99.90
9598;DHT22;4837;50.890;4.724;2024-02-16T13:19:20;13.40;99.90
9598;DHT22;4837;50.890;4.724;2024-02-16T13:21:46;13.40;99.90
9598;DHT22;4837;50.890;4.724;2024-02-16T13:24:12;13.40;99.90
9598;DHT22;4837;50.890;4.724;2024-02-16T13:26:37;13.50;99.90
9598;DHT22;4837;50.890;4.724;2024-02-16T13:29:03;13.40;99.90
9598;DHT22;4837;50.890;4.724;2024-02-16T13:31:29;13.40;99.90
9598;DHT22;4837;50.890;4.724;2024-02-16T13:33:55;13.40;99.90
9598;DHT22;4837;50.890;4.724;2024-02-16T13:36:21;13.40;99.90
9598;DHT22;4837;50.890;4.724;2024-02-16T13:38:47;13.40;99.90
9598;DHT22;4837;50.890;4.724;2024-02-16T13:41:12;13.50;99.90
9598;DHT22;4837;50.890;4.724;2024-02-16T13:43:38;13.40;99.90
9598;DHT22;4837;50.890;4.724;2024-02-16T13:46:04;13.50;99.90
9598;DHT22;4837;50.890;4.724;2024-02-16T13:48:30;13.50;99.90
9598;DHT22;4837;50.890;4.724;2024-02-16T13:50:56;13.50;99.90
9598;DHT22;4837;50.890;4.724;2024-02-16T13:53:22;13.50;99.90
9598;DHT22;4837;50.890;4.724;2024-02-16T13:55:49;13.50;99.90
9598;DHT22;4837;50.890;4.724;2024-02-16T13:58:14;13.60;99.90
9598;DHT22;4837;50.890;4.724;2024-02-16T14:00:40;13.60;99.90
9598;DHT22;4837;50.890;4.724;2024-02-16T14:03:10;13.70;99.90
9598;DHT22;4837;50.890;4.724;2024-02-16T14:05:37;13.70;99.90
9598;DHT22;4837;50.890;4.724;2024-02-16T14:08:04;13.80;99.90
9598;DHT22;4837;50.890;4.724;2024-02-16T14:10:31;13.70;99.90
9598;DHT22;4837;50.890;4.724;2024-02-16T14:12:58;13.80;99.90
9598;DHT22;4837;50.890;4.724;2024-02-16T14:15:23;13.80;99.90
9598;DHT22;4837;50.890;4.724;2024-02-16T14:17:49;13.80;99.90
9598;DHT22;4837;50.890;4.724;2024-02-16T14:20:15;13.80;99.90
9598;DHT22;4837;50.890;4.724;2024-02-16T14:22:41;13.90;99.90
9598;DHT22;4837;50.890;4.724;2024-02-16T14:25:07;13.90;99.90
9598;DHT22;4837;50.890;4.724;2024-02-16T14:27:36;13.90;99.90
9598;DHT22;4837;50.890;4.724;2024-02-16T14:30:02;13.90;99.90
9598;DHT22;4837;50.890;4.724;2024-02-16T14:32:28;13.90;99.90
9598;DHT22;4837;50.890;4.724;2024-02-16T14:34:54;13.80;99.90
9598;DHT22;4837;50.890;4.724;2024-02-16T14:37:20;13.80;99.90
9598;DHT22;4837;50.890;4.724;2024-02-16T14:39:45;13.80;99.90
9598;DHT22;4837;50.890;4.724;2024-02-16T14:42:12;13.80;99.90
9598;DHT22;4837;50.890;4.724;2024-02-16T14:44:37;14.00;99.90
9598;DHT22;4837;50.890;4.724;2024-02-16T14:47:03;14.00;99.90
9598;DHT22;4837;50.890;4.724;2024-02-16T14:49:29;14.00;99.90
9598;DHT22;4837;50.890;4.724;2024-02-16T14:51:57;14.00;99.90
9598;DHT22;4837;50.890;4.724;2024-02-16T14:54:23;13.90;99.90
9598;DHT22;4837;50.890;4.724;2024-02-16T14:56:52;13.90;99.90
9598;DHT22;4837;50.890;4.724;2024-02-16T14:59:18;13.80;99.90
9598;DHT22;4837;50.890;4.724;2024-02-16T15:01:44;13.90;99.90
9598;DHT22;4837;50.890;4.724;2024-02-16T15:04:12;14.00;99.90
9598;DHT22;4837;50.890;4.724;2024-02-16T15:06:38;14.00;99.90
9598;DHT22;4837;50.890;4.724;2024-02-16T15:09:03;13.90;99.90
9598;DHT22;4837;50.890;4.724;2024-02-16T15:11:30;13.80;99.90
9598;DHT22;4837;50.890;4.724;2024-02-16T15:13:56;13.90;99.90
9598;DHT22;4837;50.890;4.724;2024-02-16T15:16:21;13.80;99.90
9598;DHT22;4837;50.890;4.724;2024-02-16T15:18:47;13.80;99.90
9598;DHT22;4837;50.890;4.724;2024-02-16T15:21:13;13.80;99.90
9598;DHT22;4837;50.890;4.724;2024-02-16T15:23:39;13.70;99.90
9598;DHT22;4837;50.890;4.724;2024-02-16T15:26:05;13.90;99.90
9598;DHT22;4837;50.890;4.724;2024-02-16T15:28:31;13.90;99.90
9598;DHT22;4837;50.890;4.724;2024-02-16T15:30:57;13.90;99.90
9598;DHT22;4837;50.890;4.724;2024-02-16T15:33:23;13.90;99.90
9598;DHT22;4837;50.890;4.724;2024-02-16T15:35:49;14.00;99.90
9598;DHT22;4837;50.890;4.724;2024-02-16T15:38:15;14.10;99.90
9598;DHT22;4837;50.890;4.724;2024-02-16T15:40:41;14.10;99.90
9598;DHT22;4837;50.890;4.724;2024-02-16T15:43:07;14.20;99.90
9598;DHT22;4837;50.890;4.724;2024-02-16T15:45:33;14.10;99.90
9598;DHT22;4837;50.890;4.724;2024-02-16T15:48:07;14.10;99.90
9598;DHT22;4837;50.890;4.724;2024-02-16T15:50:35;14.10;99.90
9598;DHT22;4837;50.890;4.724;2024-02-16T15:53:00;14.00;99.90
9598;DHT22;4837;50.890;4.724;2024-02-16T15:55:26;13.80;99.90
9598;DHT22;4837;50.890;4.724;2024-02-16T15:57:52;13.80;99.90
9598;DHT22;4837;50.890;4.724;2024-02-16T16:00:18;13.70;99.90
9598;DHT22;4837;50.890;4.724;2024-02-16T16:02:44;13.70;99.90